HKA weather

Blytheville Municipal Airport
Blytheville, Arkansas, United States

Public forecast

Using degrees Fahrenheit for public forecast. Weather courtesy of forecast.io.

METAR (pilot weather report)

Retrieved 2019/05/24 17:53 UTC (58 minutes ago):

KHKA 241753Z AUTO VRB06KT 10SM CLR 32/19 A3013 RMK AO2 SLP200 6//// T03170194 10317 20222

TAF (pilot weather forecast)

Closest forecast is Jonesboro Municipal Airport, 40.2 nm (74.5 km) W. Retrieved 2019/05/24 18:48 UTC (3 minutes ago):

TAF KJBR 241746Z 2418/2518 21011G18KT P6SM FEW050 SCT250 FM250200 19004KT P6SM SKC FM251500 23012G18KT P6SM FEW040 SCT250